sensor_id;sensor_type;location;lat;lon;timestamp;pressure;altitude;pressure_sealevel;temperature;humidity
86051;BME280;76654;52.232;5.176;2024-02-16T11:12:49;101158.97;;;18.32;54.66
86051;BME280;76654;52.232;5.176;2024-02-16T11:15:15;101164.88;;;18.30;54.78
86051;BME280;76654;52.232;5.176;2024-02-16T11:17:40;101179.59;;;18.31;54.75
86051;BME280;76654;52.232;5.176;2024-02-16T11:20:07;101188.59;;;18.28;54.91
86051;BME280;76654;52.232;5.176;2024-02-16T11:22:32;101179.31;;;18.24;55.07
86051;BME280;76654;52.232;5.176;2024-02-16T11:25:04;101168.19;;;18.24;54.92
86051;BME280;76654;52.232;5.176;2024-02-16T11:27:30;101181.59;;;18.22;55.00
86051;BME280;76654;52.232;5.176;2024-02-16T11:29:57;101173.25;;;18.22;54.94
86051;BME280;76654;52.232;5.176;2024-02-16T11:53:44;101238.22;;;19.38;52.00
86051;BME280;76654;52.232;5.176;2024-02-16T11:56:21;101238.03;;;18.60;54.58
86051;BME280;76654;52.232;5.176;2024-02-16T11:58:46;101249.72;;;18.75;54.03
86051;BME280;76654;52.232;5.176;2024-02-16T12:01:12;101261.31;;;18.77;54.15
86051;BME280;76654;52.232;5.176;2024-02-16T12:03:40;101261.56;;;18.92;53.66
86051;BME280;76654;52.232;5.176;2024-02-16T12:23:48;101301.03;;;21.75;49.12
86051;BME280;76654;52.232;5.176;2024-02-16T12:26:13;101298.72;;;21.37;49.99
86051;BME280;76654;52.232;5.176;2024-02-16T12:28:40;101295.06;;;21.09;50.59
86051;BME280;76654;52.232;5.176;2024-02-16T12:31:07;101294.84;;;20.90;51.00
86051;BME280;76654;52.232;5.176;2024-02-16T12:33:33;101295.13;;;20.73;51.39
86051;BME280;76654;52.232;5.176;2024-02-16T12:35:58;101299.16;;;20.63;51.60
86051;BME280;76654;52.232;5.176;2024-02-16T12:38:23;101308.50;;;20.55;51.54
86051;BME280;76654;52.232;5.176;2024-02-16T12:40:49;101308.25;;;20.48;51.56
86051;BME280;76654;52.232;5.176;2024-02-16T12:43:15;101318.34;;;20.40;51.69
86051;BME280;76654;52.232;5.176;2024-02-16T12:45:41;101319.06;;;20.37;51.70
86051;BME280;76654;52.232;5.176;2024-02-16T12:48:07;101320.91;;;20.33;51.60
86051;BME280;76654;52.232;5.176;2024-02-16T12:50:34;101327.50;;;20.28;51.62
86051;BME280;76654;52.232;5.176;2024-02-16T12:53:00;101336.53;;;20.25;51.52
86051;BME280;76654;52.232;5.176;2024-02-16T12:55:25;101343.66;;;20.23;51.54
86051;BME280;76654;52.232;5.176;2024-02-16T12:57:50;101348.31;;;20.19;51.50
86051;BME280;76654;52.232;5.176;2024-02-16T13:05:06;101356.63;;;20.52;51.26
86051;BME280;76654;52.232;5.176;2024-02-16T13:07:31;101361.06;;;20.77;50.97
86051;BME280;76654;52.232;5.176;2024-02-16T13:09:56;101367.22;;;20.95;50.59
86051;BME280;76654;52.232;5.176;2024-02-16T13:12:23;101367.31;;;21.10;50.31
86051;BME280;76654;52.232;5.176;2024-02-16T13:14:49;101372.09;;;21.22;50.03
86051;BME280;76654;52.232;5.176;2024-02-16T13:17:15;101369.19;;;21.31;49.56
86051;BME280;76654;52.232;5.176;2024-02-16T13:19:42;101380.94;;;21.36;49.43
86051;BME280;76654;52.232;5.176;2024-02-16T13:22:07;101391.53;;;21.43;49.40
86051;BME280;76654;52.232;5.176;2024-02-16T13:24:32;101392.44;;;21.47;49.28
86051;BME280;76654;52.232;5.176;2024-02-16T13:26:59;101401.41;;;21.52;49.28
86051;BME280;76654;52.232;5.176;2024-02-16T13:29:24;101400.72;;;21.56;49.09
86051;BME280;76654;52.232;5.176;2024-02-16T13:31:49;101407.69;;;21.62;48.99
86051;BME280;76654;52.232;5.176;2024-02-16T13:34:14;101409.41;;;21.66;48.78
86051;BME280;76654;52.232;5.176;2024-02-16T13:36:40;101409.06;;;21.68;48.79
86051;BME280;76654;52.232;5.176;2024-02-16T13:39:06;101411.25;;;21.74;48.61
86051;BME280;76654;52.232;5.176;2024-02-16T13:41:32;101412.19;;;21.78;48.47
86051;BME280;76654;52.232;5.176;2024-02-16T13:43:58;101420.44;;;21.87;48.55
86051;BME280;76654;52.232;5.176;2024-02-16T13:46:23;101418.19;;;21.92;48.42
86051;BME280;76654;52.232;5.176;2024-02-16T13:48:49;101428.09;;;22.02;48.28
86051;BME280;76654;52.232;5.176;2024-02-16T13:51:14;101427.47;;;22.09;47.87
86051;BME280;76654;52.232;5.176;2024-02-16T13:53:39;101428.50;;;22.16;48.02
86051;BME280;76654;52.232;5.176;2024-02-16T13:56:05;101432.31;;;22.24;47.90
86051;BME280;76654;52.232;5.176;2024-02-16T14:21:22;101454.16;;;24.10;45.43
86051;BME280;76654;52.232;5.176;2024-02-16T14:23:48;101466.84;;;24.04;45.51
86051;BME280;76654;52.232;5.176;2024-02-16T14:26:13;101480.63;;;23.93;45.60
86051;BME280;76654;52.232;5.176;2024-02-16T14:28:39;101472.09;;;23.86;45.56
86051;BME280;76654;52.232;5.176;2024-02-16T14:31:05;101488.84;;;23.83;45.67
86051;BME280;76654;52.232;5.176;2024-02-16T14:33:31;101486.38;;;23.81;45.17
86051;BME280;76654;52.232;5.176;2024-02-16T14:35:59;101489.59;;;23.80;45.12
86051;BME280;76654;52.232;5.176;2024-02-16T14:38:25;101494.44;;;23.83;45.05
86051;BME280;76654;52.232;5.176;2024-02-16T14:40:51;101499.75;;;23.88;44.71
86051;BME280;76654;52.232;5.176;2024-02-16T14:43:16;101498.69;;;23.92;44.95
86051;BME280;76654;52.232;5.176;2024-02-16T14:45:41;101504.81;;;23.98;44.77
86051;BME280;76654;52.232;5.176;2024-02-16T14:48:07;101507.34;;;24.03;44.23
86051;BME280;76654;52.232;5.176;2024-02-16T14:50:32;101505.41;;;24.07;44.37
86051;BME280;76654;52.232;5.176;2024-02-16T14:52:58;101504.75;;;24.14;44.04
86051;BME280;76654;52.232;5.176;2024-02-16T14:55:23;101518.63;;;24.22;44.16
86051;BME280;76654;52.232;5.176;2024-02-16T14:57:49;101519.94;;;24.28;43.69
86051;BME280;76654;52.232;5.176;2024-02-16T15:00:14;101524.09;;;24.35;43.45
86051;BME280;76654;52.232;5.176;2024-02-16T15:02:40;101524.59;;;24.40;43.77
86051;BME280;76654;52.232;5.176;2024-02-16T15:05:10;101533.53;;;24.46;43.27
86051;BME280;76654;52.232;5.176;2024-02-16T15:07:36;101530.06;;;24.52;43.02
86051;BME280;76654;52.232;5.176;2024-02-16T15:10:04;101542.63;;;24.58;43.00
86051;BME280;76654;52.232;5.176;2024-02-16T15:12:31;101537.06;;;24.62;43.11
86051;BME280;76654;52.232;5.176;2024-02-16T15:14:57;101539.56;;;24.67;43.10
86051;BME280;76654;52.232;5.176;2024-02-16T15:17:22;101549.31;;;24.73;43.17
86051;BME280;76654;52.232;5.176;2024-02-16T15:19:47;101555.84;;;24.77;42.95
86051;BME280;76654;52.232;5.176;2024-02-16T15:22:13;101555.53;;;24.82;42.78
86051;BME280;76654;52.232;5.176;2024-02-16T15:24:38;101550.78;;;24.86;42.73
86051;BME280;76654;52.232;5.176;2024-02-16T15:27:04;101551.69;;;24.90;42.33
86051;BME280;76654;52.232;5.176;2024-02-16T15:29:30;101548.97;;;24.94;42.31
86051;BME280;76654;52.232;5.176;2024-02-16T15:31:57;101556.28;;;24.98;42.07
86051;BME280;76654;52.232;5.176;2024-02-16T15:34:24;101561.59;;;25.03;42.03
86051;BME280;76654;52.232;5.176;2024-02-16T15:36:50;101565.72;;;25.09;41.84
86051;BME280;76654;52.232;5.176;2024-02-16T15:39:16;101573.41;;;25.12;41.71
86051;BME280;76654;52.232;5.176;2024-02-16T15:41:42;101574.28;;;25.17;42.04
86051;BME280;76654;52.232;5.176;2024-02-16T15:44:07;101582.00;;;25.20;41.85
86051;BME280;76654;52.232;5.176;2024-02-16T15:46:34;101578.88;;;25.25;41.44
86051;BME280;76654;52.232;5.176;2024-02-16T15:48:59;101587.72;;;25.27;41.65
86051;BME280;76654;52.232;5.176;2024-02-16T15:51:24;101582.53;;;25.29;41.58
86051;BME280;76654;52.232;5.176;2024-02-16T15:53:51;101590.66;;;25.34;41.42
86051;BME280;76654;52.232;5.176;2024-02-16T15:56:16;101599.97;;;25.38;41.11
86051;BME280;76654;52.232;5.176;2024-02-16T15:58:42;101606.50;;;25.42;40.83
86051;BME280;76654;52.232;5.176;2024-02-16T16:01:08;101605.72;;;25.45;41.04
86051;BME280;76654;52.232;5.176;2024-02-16T16:03:34;101615.06;;;25.49;40.71
86051;BME280;76654;52.232;5.176;2024-02-16T16:05:59;101618.75;;;25.53;40.92
86051;BME280;76654;52.232;5.176;2024-02-16T16:08:25;101617.56;;;25.54;40.67
86051;BME280;76654;52.232;5.176;2024-02-16T16:10:51;101623.59;;;25.56;40.84
86051;BME280;76654;52.232;5.176;2024-02-16T16:13:17;101625.25;;;25.57;40.77
86051;BME280;76654;52.232;5.176;2024-02-16T16:15:42;101634.19;;;25.63;40.18
86051;BME280;76654;52.232;5.176;2024-02-16T16:18:10;101633.47;;;25.66;40.13
86051;BME280;76654;52.232;5.176;2024-02-16T16:20:35;101641.97;;;25.69;40.25
86051;BME280;76654;52.232;5.176;2024-02-16T16:23:03;101645.22;;;25.71;40.39
86051;BME280;76654;52.232;5.176;2024-02-16T16:25:29;101658.53;;;25.74;39.87
86051;BME280;76654;52.232;5.176;2024-02-16T16:27:55;101660.59;;;25.77;39.91
86051;BME280;76654;52.232;5.176;2024-02-16T16:30:24;101659.06;;;25.80;39.98
86051;BME280;76654;52.232;5.176;2024-02-16T16:32:50;101667.09;;;25.81;40.15
86051;BME280;76654;52.232;5.176;2024-02-16T16:35:16;101667.91;;;25.82;39.69
86051;BME280;76654;52.232;5.176;2024-02-16T16:37:41;101679.66;;;25.87;39.89
86051;BME280;76654;52.232;5.176;2024-02-16T16:40:07;101677.31;;;25.89;39.73
86051;BME280;76654;52.232;5.176;2024-02-16T16:42:34;101685.78;;;25.93;39.98
86051;BME280;76654;52.232;5.176;2024-02-16T16:45:00;101695.50;;;25.96;39.40
86051;BME280;76654;52.232;5.176;2024-02-16T16:47:25;101697.94;;;25.97;39.64
86051;BME280;76654;52.232;5.176;2024-02-16T16:49:51;101702.81;;;26.00;39.49
86051;BME280;76654;52.232;5.176;2024-02-16T16:52:17;101702.81;;;26.00;39.66
86051;BME280;76654;52.232;5.176;2024-02-16T16:54:43;101697.63;;;26.02;39.30
86051;BME280;76654;52.232;5.176;2024-02-16T16:57:08;101705.19;;;25.98;39.36
86051;BME280;76654;52.232;5.176;2024-02-16T16:59:34;101728.66;;;26.06;39.29
86051;BME280;76654;52.232;5.176;2024-02-16T17:02:00;101723.47;;;26.08;39.26
86051;BME280;76654;52.232;5.176;2024-02-16T17:04:37;101729.91;;;26.08;38.89
86051;BME280;76654;52.232;5.176;2024-02-16T17:07:03;101732.28;;;26.06;39.11
86051;BME280;76654;52.232;5.176;2024-02-16T17:09:28;101742.00;;;26.09;39.00
86051;BME280;76654;52.232;5.176;2024-02-16T17:11:54;101751.25;;;26.09;38.78
86051;BME280;76654;52.232;5.176;2024-02-16T17:14:21;101750.44;;;26.09;38.76
86051;BME280;76654;52.232;5.176;2024-02-16T17:16:49;101756.91;;;26.09;39.18
86051;BME280;76654;52.232;5.176;2024-02-16T17:19:15;101756.06;;;26.09;38.54
86051;BME280;76654;52.232;5.176;2024-02-16T17:21:40;101765.34;;;26.09;38.40
86051;BME280;76654;52.232;5.176;2024-02-16T17:24:06;101762.09;;;26.07;38.58
86051;BME280;76654;52.232;5.176;2024-02-16T17:26:31;101773.78;;;26.09;38.50
86051;BME280;76654;52.232;5.176;2024-02-16T17:28:57;101777.44;;;26.10;38.47
86051;BME280;76654;52.232;5.176;2024-02-16T17:31:22;101776.63;;;26.09;38.87
86051;BME280;76654;52.232;5.176;2024-02-16T17:33:48;101787.47;;;26.11;38.85
86051;BME280;76654;52.232;5.176;2024-02-16T17:36:13;101796.75;;;26.11;38.68
86051;BME280;76654;52.232;5.176;2024-02-16T17:38:38;101803.19;;;26.12;38.37
86051;BME280;76654;52.232;5.176;2024-02-16T17:41:04;101804.38;;;26.11;38.34
86051;BME280;76654;52.232;5.176;2024-02-16T17:43:29;101809.19;;;26.10;38.41
86051;BME280;76654;52.232;5.176;2024-02-16T17:45:55;101810.78;;;26.08;38.39
86051;BME280;76654;52.232;5.176;2024-02-16T17:48:20;101808.69;;;26.05;38.59
86051;BME280;76654;52.232;5.176;2024-02-16T17:50:46;101805.47;;;26.03;38.43
86051;BME280;76654;52.232;5.176;2024-02-16T17:53:11;101812.63;;;26.00;38.62
86051;BME280;76654;52.232;5.176;2024-02-16T17:55:37;101813.81;;;25.99;38.36
86051;BME280;76654;52.232;5.176;2024-02-16T17:58:04;101817.81;;;25.98;38.35
86051;BME280;76654;52.232;5.176;2024-02-16T18:00:30;101823.47;;;25.98;38.17
86051;BME280;76654;52.232;5.176;2024-02-16T18:02:55;101829.09;;;25.98;38.24
86051;BME280;76654;52.232;5.176;2024-02-16T18:05:21;101824.66;;;25.97;38.65
86051;BME280;76654;52.232;5.176;2024-02-16T18:07:46;101837.13;;;25.96;38.23
86051;BME280;76654;52.232;5.176;2024-02-16T18:10:12;101839.44;;;25.90;38.55
86051;BME280;76654;52.232;5.176;2024-02-16T18:12:38;101846.25;;;25.89;38.58
86051;BME280;76654;52.232;5.176;2024-02-16T18:15:05;101839.34;;;25.87;38.00
86051;BME280;76654;52.232;5.176;2024-02-16T18:17:30;101854.19;;;25.84;38.19
86051;BME280;76654;52.232;5.176;2024-02-16T18:19:56;101859.81;;;25.84;38.49
86051;BME280;76654;52.232;5.176;2024-02-16T18:22:23;101861.00;;;25.83;38.41
86051;BME280;76654;52.232;5.176;2024-02-16T18:24:48;101870.72;;;25.85;38.22
86051;BME280;76654;52.232;5.176;2024-02-16T18:27:14;101874.59;;;25.81;38.38
86051;BME280;76654;52.232;5.176;2024-02-16T18:29:39;101875.72;;;25.76;38.33
86051;BME280;76654;52.232;5.176;2024-02-16T18:32:06;101874.41;;;25.70;38.51
86051;BME280;76654;52.232;5.176;2024-02-16T18:34:32;101883.59;;;25.67;38.69
86051;BME280;76654;52.232;5.176;2024-02-16T18:36:57;101884.16;;;25.57;38.70
86051;BME280;76654;52.232;5.176;2024-02-16T18:39:23;101898.34;;;25.61;38.31
86051;BME280;76654;52.232;5.176;2024-02-16T18:41:49;101905.16;;;25.60;38.70
86051;BME280;76654;52.232;5.176;2024-02-16T18:44:15;101912.31;;;25.57;38.45
86051;BME280;76654;52.232;5.176;2024-02-16T18:46:41;101914.66;;;25.55;38.28
86051;BME280;76654;52.232;5.176;2024-02-16T18:49:09;101908.59;;;25.53;38.74
86051;BME280;76654;52.232;5.176;2024-02-16T18:51:34;101919.84;;;25.53;38.47
86051;BME280;76654;52.232;5.176;2024-02-16T18:54:00;101923.13;;;25.55;38.25
86051;BME280;76654;52.232;5.176;2024-02-16T18:56:26;101921.13;;;25.56;38.42
86051;BME280;76654;52.232;5.176;2024-02-16T18:58:52;101922.66;;;25.53;38.37
86051;BME280;76654;52.232;5.176;2024-02-16T19:01:17;101923.84;;;25.52;38.33
86051;BME280;76654;52.232;5.176;2024-02-16T19:03:42;101916.88;;;25.46;38.38
86051;BME280;76654;52.232;5.176;2024-02-16T19:06:08;101929.28;;;25.45;38.36
86051;BME280;76654;52.232;5.176;2024-02-16T19:08:34;101930.94;;;25.46;38.37
86051;BME280;76654;52.232;5.176;2024-02-16T19:11:02;101940.94;;;25.43;38.51
86051;BME280;76654;52.232;5.176;2024-02-16T19:13:29;101946.56;;;25.43;38.80
86051;BME280;76654;52.232;5.176;2024-02-16T19:15:54;101941.59;;;25.37;38.75
86051;BME280;76654;52.232;5.176;2024-02-16T19:18:21;101948.81;;;25.38;39.13
86051;BME280;76654;52.232;5.176;2024-02-16T19:20:46;101950.03;;;25.37;39.14
86051;BME280;76654;52.232;5.176;2024-02-16T19:23:11;101956.00;;;25.35;38.96
86051;BME280;76654;52.232;5.176;2024-02-16T19:25:39;101959.13;;;25.30;39.16
86051;BME280;76654;52.232;5.176;2024-02-16T19:28:04;101967.09;;;25.28;38.96
86051;BME280;76654;52.232;5.176;2024-02-16T19:30:30;101971.91;;;25.28;39.08
86051;BME280;76654;52.232;5.176;2024-02-16T19:32:55;101980.34;;;25.28;39.39
86051;BME280;76654;52.232;5.176;2024-02-16T19:35:20;101983.09;;;25.24;39.46
86051;BME280;76654;52.232;5.176;2024-02-16T19:37:48;101978.63;;;25.23;39.55
86051;BME280;76654;52.232;5.176;2024-02-16T19:40:13;101990.34;;;25.25;39.51
86051;BME280;76654;52.232;5.176;2024-02-16T19:42:38;101991.53;;;25.24;39.40
86051;BME280;76654;52.232;5.176;2024-02-16T19:45:04;101991.41;;;25.21;39.09
86051;BME280;76654;52.232;5.176;2024-02-16T19:47:30;101990.97;;;25.19;39.59
86051;BME280;76654;52.232;5.176;2024-02-16T19:49:56;101991.69;;;25.16;39.66
86051;BME280;76654;52.232;5.176;2024-02-16T19:52:21;102009.75;;;25.14;39.63
86051;BME280;76654;52.232;5.176;2024-02-16T19:54:48;102003.69;;;25.12;39.73
86051;BME280;76654;52.232;5.176;2024-02-16T19:57:13;102009.66;;;25.11;39.32
86051;BME280;76654;52.232;5.176;2024-02-16T19:59:38;102015.66;;;25.09;39.50
86051;BME280;76654;52.232;5.176;2024-02-16T20:02:04;102013.09;;;25.04;39.39
86051;BME280;76654;52.232;5.176;2024-02-16T20:04:30;102023.06;;;25.02;39.74
86051;BME280;76654;52.232;5.176;2024-02-16T20:06:57;102029.44;;;24.99;39.55
86051;BME280;76654;52.232;5.176;2024-02-16T20:09:23;102031.78;;;24.97;39.94
86051;BME280;76654;52.232;5.176;2024-02-16T20:11:48;102038.97;;;24.94;39.80
86051;BME280;76654;52.232;5.176;2024-02-16T20:14:14;102040.50;;;24.92;39.50
86051;BME280;76654;52.232;5.176;2024-02-16T20:16:39;102040.84;;;24.90;39.66
86051;BME280;76654;52.232;5.176;2024-02-16T20:19:04;102049.16;;;24.87;39.95
86051;BME280;76654;52.232;5.176;2024-02-16T20:21:36;102055.13;;;24.85;39.36
86051;BME280;76654;52.232;5.176;2024-02-16T20:24:02;102058.69;;;24.82;39.95
86051;BME280;76654;52.232;5.176;2024-02-16T20:26:28;102062.66;;;24.81;39.57
86051;BME280;76654;52.232;5.176;2024-02-16T20:28:53;102066.19;;;24.78;39.61
86051;BME280;76654;52.232;5.176;2024-02-16T20:31:19;102073.00;;;24.77;39.62
86051;BME280;76654;52.232;5.176;2024-02-16T20:33:45;102078.16;;;24.75;39.82
86051;BME280;76654;52.232;5.176;2024-02-16T20:36:10;102078.97;;;24.76;39.99
86051;BME280;76654;52.232;5.176;2024-02-16T20:38:35;102075.34;;;24.75;39.85
86051;BME280;76654;52.232;5.176;2024-02-16T20:41:01;102079.34;;;24.74;39.71
86051;BME280;76654;52.232;5.176;2024-02-16T20:43:30;102078.78;;;24.68;39.89
86051;BME280;76654;52.232;5.176;2024-02-16T20:45:55;102090.38;;;24.67;40.24
86051;BME280;76654;52.232;5.176;2024-02-16T20:48:20;102084.75;;;24.67;40.13
86051;BME280;76654;52.232;5.176;2024-02-16T20:50:46;102087.56;;;24.67;40.12
86051;BME280;76654;52.232;5.176;2024-02-16T20:53:11;102087.56;;;24.67;39.89
86051;BME280;76654;52.232;5.176;2024-02-16T20:55:36;102080.78;;;24.68;40.15
86051;BME280;76654;52.232;5.176;2024-02-16T20:58:02;102097.97;;;24.66;40.06
86051;BME280;76654;52.232;5.176;2024-02-16T21:00:28;102094.34;;;24.66;40.35
86051;BME280;76654;52.232;5.176;2024-02-16T21:02:55;102102.34;;;24.64;40.27
86051;BME280;76654;52.232;5.176;2024-02-16T21:05:20;102101.06;;;24.61;40.10
86051;BME280;76654;52.232;5.176;2024-02-16T21:07:49;102103.03;;;24.61;40.34
86051;BME280;76654;52.232;5.176;2024-02-16T21:10:15;102099.78;;;24.59;40.06
86051;BME280;76654;52.232;5.176;2024-02-16T21:12:41;102111.38;;;24.57;40.22
86051;BME280;76654;52.232;5.176;2024-02-16T21:15:06;102113.72;;;24.55;40.07
86051;BME280;76654;52.232;5.176;2024-02-16T21:17:33;102111.25;;;24.54;40.17
86051;BME280;76654;52.232;5.176;2024-02-16T21:19:58;102118.91;;;24.53;40.23
86051;BME280;76654;52.232;5.176;2024-02-16T21:22:24;102120.41;;;24.51;40.41
86051;BME280;76654;52.232;5.176;2024-02-16T21:24:49;102123.91;;;24.48;40.31
86051;BME280;76654;52.232;5.176;2024-02-16T21:27:15;102132.34;;;24.48;40.47
86051;BME280;76654;52.232;5.176;2024-02-16T21:29:40;102138.34;;;24.46;40.24
86051;BME280;76654;52.232;5.176;2024-02-16T21:32:08;102131.91;;;24.46;40.12
86051;BME280;76654;52.232;5.176;2024-02-16T21:34:34;102136.34;;;24.47;40.45
86051;BME280;76654;52.232;5.176;2024-02-16T21:36:59;102145.97;;;24.46;40.46
86051;BME280;76654;52.232;5.176;2024-02-16T21:39:26;102147.47;;;24.43;40.44
86051;BME280;76654;52.232;5.176;2024-02-16T21:41:51;102155.06;;;24.43;39.98
86051;BME280;76654;52.232;5.176;2024-02-16T21:44:17;102153.44;;;24.42;40.39
86051;BME280;76654;52.232;5.176;2024-02-16T21:46:42;102156.97;;;24.39;40.14
86051;BME280;76654;52.232;5.176;2024-02-16T21:49:07;102166.09;;;24.36;39.92
86051;BME280;76654;52.232;5.176;2024-02-16T21:51:35;102162.03;;;24.33;40.51
86051;BME280;76654;52.232;5.176;2024-02-16T21:54:01;102163.19;;;24.32;40.52
86051;BME280;76654;52.232;5.176;2024-02-16T21:56:27;102169.63;;;24.32;40.45
86051;BME280;76654;52.232;5.176;2024-02-16T21:58:52;102158.72;;;24.31;40.42
86051;BME280;76654;52.232;5.176;2024-02-16T22:01:18;102152.66;;;24.29;40.25
86051;BME280;76654;52.232;5.176;2024-02-16T22:03:47;102163.44;;;24.27;40.59
86051;BME280;76654;52.232;5.176;2024-02-16T22:06:24;102157.69;;;24.23;40.15
86051;BME280;76654;52.232;5.176;2024-02-16T22:08:51;102164.94;;;24.24;40.51
86051;BME280;76654;52.232;5.176;2024-02-16T22:11:16;102164.94;;;24.24;40.23
86051;BME280;76654;52.232;5.176;2024-02-16T22:13:45;102169.28;;;24.22;40.31
86051;BME280;76654;52.232;5.176;2024-02-16T22:16:11;102171.50;;;24.16;40.65
86051;BME280;76654;52.232;5.176;2024-02-16T22:18:37;102172.19;;;24.13;40.70
86051;BME280;76654;52.232;5.176;2024-02-16T22:21:05;102180.63;;;24.13;40.65
86051;BME280;76654;52.232;5.176;2024-02-16T22:23:33;102180.94;;;24.12;40.27
86051;BME280;76654;52.232;5.176;2024-02-16T22:26:00;102196.19;;;24.11;40.52
86051;BME280;76654;52.232;5.176;2024-02-16T22:28:25;102202.59;;;24.11;40.31
86051;BME280;76654;52.232;5.176;2024-02-16T22:30:51;102199.78;;;24.11;40.58
86051;BME280;76654;52.232;5.176;2024-02-16T22:33:16;102193.72;;;24.09;40.28
86051;BME280;76654;52.232;5.176;2024-02-16T22:35:42;102200.50;;;24.08;40.54
86051;BME280;76654;52.232;5.176;2024-02-16T22:38:07;102208.44;;;24.06;40.52
86051;BME280;76654;52.232;5.176;2024-02-16T22:40:32;102212.78;;;24.04;40.62
86051;BME280;76654;52.232;5.176;2024-02-16T22:42:58;102215.13;;;24.02;40.73
86051;BME280;76654;52.232;5.176;2024-02-16T22:45:23;102221.91;;;24.01;40.62
86051;BME280;76654;52.232;5.176;2024-02-16T22:47:48;102222.25;;;23.99;40.45
86051;BME280;76654;52.232;5.176;2024-02-16T22:50:14;102222.63;;;23.98;40.50
86051;BME280;76654;52.232;5.176;2024-02-16T22:52:39;102221.81;;;23.97;40.78
86051;BME280;76654;52.232;5.176;2024-02-16T22:55:05;102228.56;;;23.96;40.46
86051;BME280;76654;52.232;5.176;2024-02-16T22:57:30;102231.38;;;23.96;40.56
86051;BME280;76654;52.232;5.176;2024-02-16T22:59:56;102233.38;;;23.96;40.52
86051;BME280;76654;52.232;5.176;2024-02-16T23:02:22;102232.56;;;23.95;40.47
86051;BME280;76654;52.232;5.176;2024-02-16T23:04:47;102232.88;;;23.93;40.55
86051;BME280;76654;52.232;5.176;2024-02-16T23:07:13;102239.69;;;23.92;40.40
86051;BME280;76654;52.232;5.176;2024-02-16T23:09:39;102240.03;;;23.91;40.52
86051;BME280;76654;52.232;5.176;2024-02-16T23:12:04;102241.69;;;23.92;40.39
86051;BME280;76654;52.232;5.176;2024-02-16T23:14:31;102244.50;;;23.92;40.30
86051;BME280;76654;52.232;5.176;2024-02-16T23:16:57;102246.47;;;23.91;40.38
86051;BME280;76654;52.232;5.176;2024-02-16T23:19:23;102250.78;;;23.89;40.51
86051;BME280;76654;52.232;5.176;2024-02-16T23:21:48;102249.84;;;23.85;40.66
86051;BME280;76654;52.232;5.176;2024-02-16T23:24:13;102263.56;;;23.86;40.47
86051;BME280;76654;52.232;5.176;2024-02-16T23:26:39;102265.06;;;23.84;40.49
86051;BME280;76654;52.232;5.176;2024-02-16T23:29:04;102264.56;;;23.82;40.78
86051;BME280;76654;52.232;5.176;2024-02-16T23:31:29;102271.72;;;23.79;40.52
86051;BME280;76654;52.232;5.176;2024-02-16T23:33:55;102270.06;;;23.78;40.57
86051;BME280;76654;52.232;5.176;2024-02-16T23:36:21;102275.69;;;23.78;40.79
86051;BME280;76654;52.232;5.176;2024-02-16T23:38:46;102270.41;;;23.77;40.87
86051;BME280;76654;52.232;5.176;2024-02-16T23:41:12;102273.56;;;23.75;40.51
86051;BME280;76654;52.232;5.176;2024-02-16T23:43:37;102277.41;;;23.71;40.95
86051;BME280;76654;52.232;5.176;2024-02-16T23:46:03;102287.13;;;23.73;40.89
86051;BME280;76654;52.232;5.176;2024-02-16T23:48:31;102281.38;;;23.70;40.82
86051;BME280;76654;52.232;5.176;2024-02-16T23:50:56;102288.19;;;23.69;40.59
86051;BME280;76654;52.232;5.176;2024-02-16T23:53:22;102295.78;;;23.68;41.11
86051;BME280;76654;52.232;5.176;2024-02-16T23:55:48;102298.09;;;23.66;40.63
86051;BME280;76654;52.232;5.176;2024-02-16T23:58:14;102301.25;;;23.65;41.09
